createdAt,value
2018-09-06T00:00:55.738Z,22.84
2018-09-06T00:03:24.739Z,23.05
2018-09-06T00:05:53.751Z,22.57
2018-09-06T00:08:23.049Z,22.72
2018-09-06T00:10:52.065Z,22.75
2018-09-06T00:13:21.008Z,21.62
2018-09-06T00:15:50.037Z,21.41
2018-09-06T00:18:18.986Z,22.03
2018-09-06T00:20:48.024Z,22.22
2018-09-06T00:23:17.107Z,22.48
2018-09-06T00:25:46.082Z,21.94
2018-09-06T00:28:15.135Z,22.21
2018-09-06T00:30:44.159Z,22.16
2018-09-06T00:33:13.232Z,22.08
2018-09-06T00:35:42.230Z,22.32
2018-09-06T00:38:11.228Z,21.93
2018-09-06T00:40:40.256Z,22.14
2018-09-06T00:43:09.245Z,22.42
2018-09-06T00:45:38.211Z,21.95
2018-09-06T00:48:07.221Z,21.83
2018-09-06T00:50:40.267Z,21.49
2018-09-06T00:53:09.258Z,21.85
2018-09-06T00:55:38.214Z,21.98
2018-09-06T00:58:07.221Z,21.95
2018-09-06T01:00:36.297Z,21.46
2018-09-06T01:03:05.325Z,21.86
2018-09-06T01:05:34.290Z,22.01
2018-09-06T01:08:03.302Z,22.07
2018-09-06T01:10:32.270Z,21.69
2018-09-06T01:13:01.287Z,21.82
2018-09-06T01:15:30.234Z,21.94
2018-09-06T01:17:59.218Z,21.88
2018-09-06T01:20:28.173Z,21.66
2018-09-06T01:22:57.133Z,21.73
2018-09-06T01:25:28.594Z,21.95
2018-09-06T01:27:57.553Z,21.75
2018-09-06T01:30:26.433Z,21.73
2018-09-06T01:32:55.437Z,21.95
2018-09-06T01:35:24.376Z,21.89
2018-09-06T01:37:53.382Z,21.80
2018-09-06T01:40:22.422Z,21.66
2018-09-06T01:42:51.349Z,21.54
2018-09-06T01:45:20.365Z,21.32
2018-09-06T01:47:49.357Z,21.49
2018-09-06T01:50:18.285Z,21.10
2018-09-06T01:52:47.326Z,20.87
2018-09-06T01:55:16.325Z,20.99
2018-09-06T01:57:45.285Z,21.01
2018-09-06T02:00:14.245Z,20.68
2018-09-06T02:02:43.300Z,20.95
2018-09-06T02:05:16.410Z,21.07
2018-09-06T02:07:45.539Z,20.97
2018-09-06T02:10:14.458Z,20.38
2018-09-06T02:12:43.669Z,20.42
2018-09-06T02:15:12.755Z,20.98
2018-09-06T02:17:41.842Z,20.83
2018-09-06T02:20:10.773Z,21.13
2018-09-06T02:22:39.772Z,21.10
2018-09-06T02:25:08.834Z,21.39
2018-09-06T02:27:37.857Z,21.18
2018-09-06T02:30:07.034Z,21.38
2018-09-06T02:32:35.957Z,21.10
2018-09-06T02:35:04.865Z,20.91
2018-09-06T02:37:33.858Z,20.72
2018-09-06T02:40:02.829Z,20.60
2018-09-06T02:42:31.858Z,20.78
2018-09-06T02:45:00.933Z,20.68
2018-09-06T02:47:30.158Z,20.40
2018-09-06T02:50:04.221Z,20.96
2018-09-06T02:52:33.118Z,20.86
2018-09-06T02:55:02.084Z,20.74
2018-09-06T02:57:31.088Z,20.46
2018-09-06T03:00:00.136Z,20.44
2018-09-06T03:02:29.074Z,20.87
2018-09-06T03:04:58.114Z,20.58
2018-09-06T03:07:27.087Z,20.37
2018-09-06T03:09:56.098Z,20.76
2018-09-06T03:12:25.082Z,20.89
2018-09-06T03:14:54.102Z,20.87
2018-09-06T03:17:23.069Z,20.87
2018-09-06T03:19:52.060Z,20.71
2018-09-06T03:22:21.004Z,20.03
2018-09-06T03:24:49.952Z,20.00
2018-09-06T03:27:18.910Z,19.85
2018-09-06T03:29:47.925Z,19.80
2018-09-06T03:32:17.041Z,19.69
2018-09-06T03:34:46.120Z,19.28
2018-09-06T03:37:15.041Z,19.96
2018-09-06T03:39:44.174Z,19.78
2018-09-06T03:42:13.218Z,19.31
2018-09-06T03:44:42.255Z,19.09
2018-09-06T03:47:11.267Z,19.39
2018-09-06T03:49:40.230Z,19.43
2018-09-06T03:52:09.242Z,19.49
2018-09-06T03:54:38.218Z,19.32
2018-09-06T03:57:07.741Z,19.41
2018-09-06T03:59:36.742Z,19.51
2018-09-06T04:02:05.717Z,19.49
2018-09-06T04:04:34.775Z,19.48
2018-09-06T04:07:03.826Z,18.98
2018-09-06T04:09:32.805Z,18.76
2018-09-06T04:12:01.885Z,19.10
2018-09-06T04:14:30.916Z,18.68
2018-09-06T04:17:00.090Z,18.98
2018-09-06T04:19:29.416Z,18.60
2018-09-06T04:21:58.467Z,19.25
2018-09-06T04:24:27.579Z,19.18
2018-09-06T04:26:56.575Z,19.05
2018-09-06T04:29:25.858Z,19.19
2018-09-06T04:31:54.776Z,19.36
2018-09-06T04:34:23.818Z,19.00
2018-09-06T04:36:52.835Z,19.27
2018-09-06T04:39:21.846Z,19.11
2018-09-06T04:41:50.730Z,19.15
2018-09-06T04:44:19.750Z,18.98
2018-09-06T04:46:51.676Z,19.26
2018-09-06T04:49:20.970Z,19.39
2018-09-06T04:51:50.295Z,19.59
2018-09-06T04:54:19.278Z,19.51
2018-09-06T04:56:48.339Z,19.33
2018-09-06T04:59:17.416Z,19.61
2018-09-06T05:01:46.718Z,19.50
2018-09-06T05:04:15.786Z,19.71
2018-09-06T05:06:44.698Z,19.14
2018-09-06T05:09:13.723Z,19.01
2018-09-06T05:11:42.777Z,19.04
2018-09-06T05:14:11.818Z,19.55
2018-09-06T05:16:40.757Z,19.13
2018-09-06T05:19:09.793Z,19.17
2018-09-06T05:21:38.703Z,18.98
2018-09-06T05:24:07.665Z,19.00
2018-09-06T05:26:36.705Z,19.15
2018-09-06T05:29:05.613Z,19.11
2018-09-06T05:31:34.522Z,19.24
2018-09-06T05:34:03.398Z,19.35
2018-09-06T05:36:32.589Z,19.22
2018-09-06T05:39:01.508Z,19.21
2018-09-06T05:41:30.573Z,19.49
2018-09-06T05:43:59.596Z,19.38
2018-09-06T05:46:28.718Z,19.53
2018-09-06T05:48:57.969Z,19.52
2018-09-06T05:51:27.085Z,19.57
2018-09-06T05:53:56.021Z,19.77
2018-09-06T05:56:25.122Z,19.56
2018-09-06T05:58:54.075Z,19.48
2018-09-06T06:01:23.110Z,19.76
2018-09-06T06:03:52.058Z,19.88
2018-09-06T06:06:21.111Z,19.81
2018-09-06T06:08:51.603Z,19.72
2018-09-06T06:11:20.996Z,19.93
2018-09-06T06:13:49.965Z,19.84
2018-09-06T06:16:19.025Z,19.86
2018-09-06T06:18:47.982Z,19.95
2018-09-06T06:21:17.012Z,19.89
2018-09-06T06:23:46.032Z,19.84
2018-09-06T06:26:15.015Z,19.77
2018-09-06T06:28:44.022Z,19.82
2018-09-06T06:31:13.038Z,20.28
2018-09-06T06:33:41.991Z,20.26
2018-09-06T06:36:10.973Z,20.14
2018-09-06T06:38:39.943Z,20.11
2018-09-06T06:41:08.922Z,20.08
2018-09-06T06:43:37.853Z,20.53
2018-09-06T06:46:06.878Z,20.76
2018-09-06T06:48:35.803Z,20.94
2018-09-06T06:51:04.767Z,21.14
2018-09-06T06:53:33.717Z,21.51
2018-09-06T06:56:02.775Z,21.33
2018-09-06T06:58:31.908Z,21.36
2018-09-06T07:01:00.955Z,22.01
2018-09-06T07:03:29.858Z,22.24
2018-09-06T07:05:58.868Z,22.16
2018-09-06T07:08:27.820Z,22.19
2018-09-06T07:10:56.783Z,22.00
2018-09-06T07:13:25.687Z,22.13
2018-09-06T07:15:54.706Z,22.58
2018-09-06T07:18:23.836Z,22.25
2018-09-06T07:20:52.935Z,22.17
2018-09-06T07:23:21.982Z,22.18
2018-09-06T07:25:50.982Z,22.68
2018-09-06T07:28:19.942Z,23.16
2018-09-06T07:30:49.005Z,23.19
2018-09-06T07:33:17.956Z,23.24
2018-09-06T07:35:47.000Z,22.98
2018-09-06T07:38:15.875Z,22.96
2018-09-06T07:40:44.930Z,23.12
2018-09-06T07:43:13.811Z,23.19
2018-09-06T07:45:42.838Z,23.21
2018-09-06T07:48:11.911Z,23.45
2018-09-06T07:50:40.910Z,24.28
2018-09-06T07:53:09.837Z,24.06
2018-09-06T07:55:38.845Z,23.83
2018-09-06T07:58:07.806Z,23.20
2018-09-06T08:00:40.585Z,23.36
2018-09-06T08:03:10.067Z,23.96
2018-09-06T08:05:39.101Z,24.10
2018-09-06T08:08:08.041Z,24.11
2018-09-06T08:10:37.162Z,23.96
2018-09-06T08:13:06.221Z,24.52
2018-09-06T08:15:35.137Z,24.66
2018-09-06T08:18:04.167Z,24.71
2018-09-06T08:20:33.501Z,24.66
2018-09-06T08:23:02.895Z,24.25
2018-09-06T08:25:32.141Z,25.28
2018-09-06T08:28:01.169Z,25.37
2018-09-06T08:30:30.233Z,24.98
2018-09-06T08:32:59.251Z,24.25
2018-09-06T08:35:28.238Z,24.61
2018-09-06T08:37:57.229Z,24.97
2018-09-06T08:40:26.249Z,25.56
2018-09-06T08:42:55.273Z,25.48
2018-09-06T08:45:24.267Z,25.55
2018-09-06T08:47:53.261Z,25.07
2018-09-06T08:50:22.247Z,25.72
2018-09-06T08:52:51.237Z,25.35
2018-09-06T08:55:20.128Z,25.48
2018-09-06T08:57:49.094Z,25.72
2018-09-06T09:00:18.025Z,25.12
2018-09-06T09:02:47.148Z,25.55
2018-09-06T09:05:16.049Z,25.45
2018-09-06T09:07:45.098Z,25.62
2018-09-06T09:10:14.086Z,25.21
2018-09-06T09:12:43.037Z,25.23
2018-09-06T09:15:11.984Z,25.37
2018-09-06T09:17:40.977Z,26.45
2018-09-06T09:20:09.930Z,25.91
2018-09-06T09:22:38.929Z,25.95
2018-09-06T09:25:07.829Z,27.11
2018-09-06T09:27:36.894Z,25.94
2018-09-06T09:30:05.865Z,26.44
2018-09-06T09:32:34.932Z,27.37
2018-09-06T09:35:03.942Z,27.66
2018-09-06T09:37:32.997Z,27.42
2018-09-06T09:40:02.278Z,26.66
2018-09-06T09:42:31.233Z,27.38
2018-09-06T09:45:00.167Z,27.58
2018-09-06T09:49:56.973Z,26.94
2018-09-06T09:52:25.930Z,26.35
2018-09-06T09:54:54.809Z,26.16
2018-09-06T09:57:23.778Z,26.33
2018-09-06T09:59:52.824Z,26.55
2018-09-06T10:02:26.976Z,26.45
2018-09-06T10:05:00.125Z,26.22
2018-09-06T10:07:34.584Z,26.54
2018-09-06T10:10:03.562Z,26.83
2018-09-06T10:12:32.545Z,27.48
2018-09-06T10:15:01.497Z,27.01
2018-09-06T10:17:30.501Z,27.86
2018-09-06T10:19:59.497Z,27.21
2018-09-06T10:22:28.465Z,28.44
2018-09-06T10:24:57.409Z,27.74
2018-09-06T10:27:26.436Z,28.13
2018-09-06T10:29:55.629Z,27.73
2018-09-06T10:32:25.009Z,27.91
2018-09-06T10:34:54.317Z,28.07
2018-09-06T10:37:23.354Z,28.29
2018-09-06T10:39:52.424Z,29.26
2018-09-06T10:42:21.395Z,29.04
2018-09-06T10:44:50.440Z,27.82
2018-09-06T10:47:19.422Z,27.97
2018-09-06T10:49:48.541Z,27.99
2018-09-06T10:52:17.489Z,28.39
2018-09-06T10:54:46.526Z,28.96
2018-09-06T10:57:15.515Z,30.15
2018-09-06T10:59:44.549Z,29.20
2018-09-06T11:02:13.570Z,27.85
2018-09-06T11:04:42.981Z,28.62
2018-09-06T11:07:11.936Z,29.20
2018-09-06T11:09:40.890Z,27.86
2018-09-06T11:12:09.845Z,28.65
2018-09-06T11:14:38.826Z,28.43
2018-09-06T11:17:07.864Z,28.47
2018-09-06T11:19:36.837Z,27.81
2018-09-06T11:22:06.064Z,28.45
2018-09-06T11:24:34.939Z,28.12
2018-09-06T11:27:04.124Z,28.49
2018-09-06T11:29:33.419Z,27.86
2018-09-06T11:32:02.381Z,27.84
2018-09-06T11:34:31.651Z,28.54
2018-09-06T11:37:00.678Z,29.59
2018-09-06T11:39:29.681Z,30.49
2018-09-06T11:41:58.806Z,28.09
2018-09-06T11:44:27.849Z,28.35
2018-09-06T11:46:56.982Z,28.54
2018-09-06T11:49:26.302Z,29.33
2018-09-06T11:51:55.410Z,28.34
2018-09-06T11:54:24.386Z,29.31
2018-09-06T11:56:53.391Z,28.80
2018-09-06T11:59:22.354Z,28.98
2018-09-06T12:01:51.367Z,29.20
2018-09-06T12:04:20.522Z,28.14
2018-09-06T12:06:49.430Z,27.88
2018-09-06T12:09:18.838Z,28.46
2018-09-06T12:11:47.769Z,28.68
2018-09-06T12:14:16.738Z,28.47
2018-09-06T12:16:45.709Z,28.56
2018-09-06T12:19:14.745Z,28.50
2018-09-06T12:21:43.702Z,27.82
2018-09-06T12:24:12.798Z,28.93
2018-09-06T12:26:41.782Z,28.63
2018-09-06T12:29:10.870Z,28.71
2018-09-06T12:31:40.114Z,28.46
2018-09-06T12:34:09.172Z,28.84
2018-09-06T12:36:38.146Z,27.72
2018-09-06T12:39:08.822Z,27.84
2018-09-06T12:41:37.754Z,27.61
2018-09-06T12:44:07.148Z,27.53
2018-09-06T12:46:36.145Z,27.48
2018-09-06T12:49:05.086Z,27.76
2018-09-06T12:51:33.998Z,27.80
2018-09-06T12:54:02.980Z,27.47
2018-09-06T12:56:31.960Z,27.24
2018-09-06T12:59:00.914Z,26.82
2018-09-06T13:01:29.854Z,26.85
2018-09-06T13:03:58.803Z,26.70
2018-09-06T13:06:27.725Z,26.88
2018-09-06T13:08:56.673Z,26.81
2018-09-06T13:11:25.697Z,26.14
2018-09-06T13:13:54.791Z,25.83
2018-09-06T13:16:23.666Z,25.63
2018-09-06T13:18:52.680Z,26.05
2018-09-06T13:21:21.807Z,26.39
2018-09-06T13:23:50.910Z,26.62
2018-09-06T13:26:20.032Z,26.04
2018-09-06T13:28:49.062Z,26.00
2018-09-06T13:31:18.601Z,26.00
2018-09-06T13:33:47.941Z,26.23
2018-09-06T13:36:16.861Z,26.28
2018-09-06T13:38:45.858Z,25.15
2018-09-06T13:41:14.804Z,24.09
2018-09-06T13:43:43.761Z,23.49
2018-09-06T13:46:12.790Z,23.95
2018-09-06T13:48:41.813Z,23.83
2018-09-06T13:51:10.771Z,24.75
2018-09-06T13:53:40.041Z,25.25
2018-09-06T13:56:09.054Z,25.42
2018-09-06T13:58:37.995Z,25.54
2018-09-06T14:01:07.049Z,25.53
2018-09-06T14:03:36.068Z,25.75
2018-09-06T14:06:05.039Z,25.62
2018-09-06T14:08:34.027Z,26.12
2018-09-06T14:11:02.991Z,26.47
2018-09-06T14:13:31.934Z,26.53
2018-09-06T14:16:01.063Z,26.79
2018-09-06T14:18:30.055Z,26.67
2018-09-06T14:20:59.197Z,26.82
2018-09-06T14:23:28.196Z,26.65
2018-09-06T14:25:57.181Z,26.46
2018-09-06T14:28:26.150Z,26.65
2018-09-06T14:30:55.182Z,26.08
2018-09-06T14:33:24.111Z,25.11
2018-09-06T14:35:53.325Z,25.01
2018-09-06T14:38:22.322Z,24.81
2018-09-06T14:40:51.321Z,25.50
2018-09-06T14:43:20.333Z,25.35
2018-09-06T14:45:49.321Z,25.79
2018-09-06T14:48:18.345Z,25.49
2018-09-06T14:50:47.838Z,25.88
2018-09-06T14:53:16.781Z,25.82
2018-09-06T14:55:45.775Z,25.58
2018-09-06T14:58:14.746Z,25.95
2018-09-06T15:00:43.794Z,25.90
2018-09-06T15:03:12.662Z,26.05
2018-09-06T15:05:41.594Z,25.98
2018-09-06T15:08:10.621Z,25.82
2018-09-06T15:10:39.553Z,26.08
2018-09-06T15:13:08.454Z,26.09
2018-09-06T15:15:37.513Z,25.89
2018-09-06T15:18:06.554Z,25.68
2018-09-06T15:20:35.484Z,25.59
2018-09-06T15:23:04.382Z,25.80
2018-09-06T15:25:33.470Z,25.72
2018-09-06T15:28:02.724Z,25.16
2018-09-06T15:30:31.770Z,25.23
2018-09-06T15:33:00.765Z,25.49
2018-09-06T15:35:29.718Z,25.66
2018-09-06T15:37:58.657Z,25.60
2018-09-06T15:40:27.654Z,25.77
2018-09-06T15:42:56.649Z,25.34
2018-09-06T15:45:25.637Z,24.96
2018-09-06T15:47:54.570Z,24.98
2018-09-06T15:50:23.627Z,24.86
2018-09-06T15:52:52.561Z,25.18
2018-09-06T15:55:21.566Z,25.32
2018-09-06T15:57:50.544Z,24.77
2018-09-06T16:00:19.567Z,24.67
2018-09-06T16:02:48.485Z,24.74
2018-09-06T16:05:17.461Z,24.78
2018-09-06T16:07:46.453Z,24.76
2018-09-06T16:10:15.360Z,24.55
2018-09-06T16:12:44.271Z,24.52
2018-09-06T16:15:13.215Z,24.76
2018-09-06T16:17:42.149Z,24.91
2018-09-06T16:20:11.171Z,24.80
2018-09-06T16:22:40.214Z,24.66
2018-09-06T16:25:09.210Z,24.41
2018-09-06T16:27:38.141Z,24.80
2018-09-06T16:30:07.540Z,24.60
2018-09-06T16:32:36.517Z,24.57
2018-09-06T16:35:05.495Z,24.44
2018-09-06T16:37:34.476Z,24.33
2018-09-06T16:40:03.397Z,24.17
2018-09-06T16:42:32.489Z,24.26
2018-09-06T16:45:01.481Z,23.64
2018-09-06T16:47:30.613Z,24.41
2018-09-06T16:49:59.662Z,24.17
2018-09-06T16:52:28.859Z,24.42
2018-09-06T16:54:57.942Z,24.13
2018-09-06T16:57:27.102Z,24.21
2018-09-06T16:59:56.400Z,24.30
2018-09-06T17:02:25.562Z,24.22
2018-09-06T17:04:54.601Z,24.14
2018-09-06T17:07:23.713Z,24.29
2018-09-06T17:09:52.803Z,23.78
2018-09-06T17:12:21.887Z,23.60
2018-09-06T17:14:50.893Z,23.98
2018-09-06T17:17:19.886Z,23.98
2018-09-06T17:19:49.050Z,23.97
2018-09-06T17:22:18.379Z,23.74
2018-09-06T17:24:47.464Z,23.53
2018-09-06T17:27:16.486Z,23.70
2018-09-06T17:29:45.457Z,23.87
2018-09-06T17:32:14.479Z,24.05
2018-09-06T17:34:43.409Z,24.16
2018-09-06T17:37:12.453Z,23.79
2018-09-06T17:39:41.534Z,23.55
2018-09-06T17:42:10.652Z,23.64
2018-09-06T17:44:39.598Z,23.57
2018-09-06T17:47:08.584Z,23.60
2018-09-06T17:49:37.527Z,22.98
2018-09-06T17:52:06.549Z,23.20
2018-09-06T17:54:35.657Z,23.45
2018-09-06T17:57:04.738Z,23.50
2018-09-06T17:59:33.717Z,23.44
2018-09-06T18:02:02.927Z,23.02
2018-09-06T18:04:31.858Z,23.07
2018-09-06T18:07:00.864Z,23.08
2018-09-06T18:09:30.164Z,23.03
2018-09-06T18:11:59.193Z,22.87
2018-09-06T18:14:28.230Z,22.62
2018-09-06T18:16:57.215Z,22.50
2018-09-06T18:19:26.179Z,22.72
2018-09-06T18:21:55.148Z,22.40
2018-09-06T18:24:24.149Z,22.70
2018-09-06T18:26:53.169Z,22.75
2018-09-06T18:29:22.111Z,22.49
2018-09-06T18:31:51.113Z,22.63
2018-09-06T18:34:20.028Z,22.52
2018-09-06T18:36:49.101Z,22.48
2018-09-06T18:39:18.069Z,22.29
2018-09-06T18:41:47.033Z,22.36
2018-09-06T18:44:16.045Z,22.31
2018-09-06T18:46:45.050Z,22.19
2018-09-06T18:49:14.035Z,21.98
2018-09-06T18:51:43.017Z,22.69
2018-09-06T18:54:11.987Z,22.52
2018-09-06T18:56:41.042Z,22.47
2018-09-06T18:59:10.045Z,22.02
2018-09-06T19:01:39.009Z,22.41
2018-09-06T19:04:07.950Z,22.62
2018-09-06T19:06:36.839Z,22.89
2018-09-06T19:09:08.515Z,23.01
2018-09-06T19:11:37.521Z,23.03
2018-09-06T19:14:06.574Z,22.47
2018-09-06T19:16:35.629Z,22.44
2018-09-06T19:19:04.706Z,22.08
2018-09-06T19:21:33.643Z,22.03
2018-09-06T19:24:02.659Z,21.94
2018-09-06T19:26:31.602Z,21.79
2018-09-06T19:29:00.594Z,21.88
2018-09-06T19:31:29.541Z,22.33
2018-09-06T19:33:58.705Z,22.51
2018-09-06T19:36:27.694Z,22.48
2018-09-06T19:38:56.775Z,22.58
2018-09-06T19:41:25.734Z,21.97
2018-09-06T19:43:54.937Z,22.52
2018-09-06T19:46:23.883Z,22.54
2018-09-06T19:48:52.887Z,22.03
2018-09-06T19:51:21.814Z,21.51
2018-09-06T19:53:51.049Z,21.77
2018-09-06T19:56:20.091Z,21.79
2018-09-06T19:58:49.272Z,21.80
2018-09-06T20:01:18.230Z,22.21
2018-09-06T20:03:47.766Z,21.53
2018-09-06T20:06:16.793Z,21.38
2018-09-06T20:08:45.839Z,21.22
2018-09-06T20:11:14.824Z,21.09
2018-09-06T20:13:43.842Z,21.35
2018-09-06T20:16:12.778Z,21.26
2018-09-06T20:18:41.756Z,21.10
2018-09-06T20:21:10.709Z,21.26
2018-09-06T20:23:39.731Z,21.59
2018-09-06T20:26:08.718Z,21.25
2018-09-06T20:28:37.801Z,21.17
2018-09-06T20:31:06.761Z,21.07
2018-09-06T20:33:35.856Z,21.31
2018-09-06T20:36:04.854Z,21.03
2018-09-06T20:38:33.802Z,20.82
2018-09-06T20:41:02.738Z,21.05
2018-09-06T20:43:31.845Z,21.14
2018-09-06T20:46:00.869Z,20.90
2018-09-06T20:48:29.858Z,21.05
2018-09-06T20:50:58.943Z,21.30
2018-09-06T20:53:27.898Z,20.96
2018-09-06T20:55:56.887Z,20.71
2018-09-06T20:58:25.882Z,20.99
2018-09-06T21:00:54.866Z,21.21
2018-09-06T21:03:23.874Z,21.43
2018-09-06T21:05:53.013Z,21.63
2018-09-06T21:08:22.167Z,21.23
2018-09-06T21:10:51.161Z,21.26
2018-09-06T21:13:20.146Z,21.42
2018-09-06T21:15:49.117Z,21.53
2018-09-06T21:18:18.265Z,21.17
2018-09-06T21:20:47.258Z,21.41
2018-09-06T21:23:16.284Z,21.50
2018-09-06T21:25:45.301Z,20.99
2018-09-06T21:28:14.309Z,21.07
2018-09-06T21:30:43.339Z,20.87
2018-09-06T21:33:12.257Z,21.03
2018-09-06T21:35:41.219Z,21.01
2018-09-06T21:38:10.198Z,20.94
2018-09-06T21:40:39.178Z,20.85
2018-09-06T21:43:08.206Z,20.85
2018-09-06T21:45:37.212Z,20.86
2018-09-06T21:48:06.125Z,20.63
2018-09-06T21:50:35.193Z,20.56
2018-09-06T21:53:04.122Z,20.75
2018-09-06T21:55:33.080Z,20.68
2018-09-06T21:58:02.173Z,20.62
2018-09-06T22:00:31.784Z,20.74
2018-09-06T22:03:05.859Z,20.68
2018-09-06T22:05:34.830Z,20.73
2018-09-06T22:08:03.785Z,20.71
2018-09-06T22:10:32.730Z,20.71
2018-09-06T22:13:01.722Z,20.42
2018-09-06T22:15:30.826Z,20.44
2018-09-06T22:17:59.781Z,20.95
2018-09-06T22:20:28.770Z,21.00
2018-09-06T22:22:57.808Z,20.56
2018-09-06T22:25:26.806Z,20.38
2018-09-06T22:27:55.771Z,20.73
2018-09-06T22:30:24.702Z,20.70
2018-09-06T22:32:53.797Z,20.66
2018-09-06T22:35:22.758Z,20.72
2018-09-06T22:37:51.728Z,20.62
2018-09-06T22:40:20.709Z,20.45
2018-09-06T22:42:49.694Z,20.23
2018-09-06T22:45:18.706Z,20.78
2018-09-06T22:47:47.801Z,20.90
2018-09-06T22:50:16.862Z,20.15
2018-09-06T22:52:45.878Z,20.88
2018-09-06T22:55:14.907Z,20.68
2018-09-06T22:57:43.999Z,20.57
2018-09-06T23:00:13.050Z,20.42
2018-09-06T23:02:46.983Z,20.58
2018-09-06T23:05:16.115Z,20.13
2018-09-06T23:07:45.086Z,20.32
2018-09-06T23:10:14.152Z,20.08
2018-09-06T23:12:43.120Z,20.04
2018-09-06T23:15:12.177Z,20.08
2018-09-06T23:17:41.138Z,19.97
2018-09-06T23:20:10.145Z,20.02
2018-09-06T23:22:39.874Z,20.44
2018-09-06T23:25:09.865Z,20.48
2018-09-06T23:27:38.748Z,20.57
2018-09-06T23:30:07.843Z,20.04
2018-09-06T23:32:36.783Z,20.06
2018-09-06T23:35:05.773Z,20.27
2018-09-06T23:37:34.733Z,20.37
2018-09-06T23:40:03.705Z,19.88
2018-09-06T23:42:32.647Z,19.77
2018-09-06T23:45:01.590Z,20.04
2018-09-06T23:47:30.558Z,19.59
2018-09-06T23:49:59.585Z,19.85
2018-09-06T23:52:28.626Z,19.57
2018-09-06T23:54:57.638Z,20.13
2018-09-06T23:57:26.557Z,19.94
2018-09-06T23:59:55.669Z,19.68
